Time;durP1;ratioP1;P1;durP2;ratioP2;P2;SDS_P1;SDS_P2;PMS_P1;PMS_P2;Temp;Humidity;BMP_temperature;BMP_pressure;BME280_temperature;BME280_humidity;BME280_pressure;Samples;Min_cycle;Max_cycle;Signal;HPM_P1;HPM_P2
2022/08/18 00:01:05;;;;;;;16.60;6.07;;;20.50;99.90;;;;;;5053040;28;20571;-38
2022/08/18 00:03:31;;;;;;;19.00;5.95;;;18.10;99.90;;;;;;5051898;28;20080;-38
2022/08/18 00:05:57;;;;;;;21.40;6.13;;;18.40;99.90;;;;;;5052136;28;20577;-38
2022/08/18 00:08:22;;;;;;;18.60;6.72;;;18.20;99.90;;;;;;5051571;28;20739;-38
2022/08/18 00:10:48;;;;;;;16.88;6.30;;;18.60;99.90;;;;;;5053442;28;20092;-38
2022/08/18 00:13:14;;;;;;;20.77;7.10;;;18.20;99.90;;;;;;5051944;28;20112;-38
2022/08/18 00:15:39;;;;;;;19.58;6.30;;;18.20;99.90;;;;;;5052406;28;20090;-38
2022/08/18 00:18:05;;;;;;;24.48;6.40;;;18.00;99.90;;;;;;5050833;28;20436;-38
2022/08/18 00:20:31;;;;;;;18.73;6.40;;;20.30;99.90;;;;;;5053221;28;20287;-38
2022/08/18 00:22:56;;;;;;;20.67;6.90;;;18.20;99.90;;;;;;5051307;28;20045;-39
2022/08/18 00:25:23;;;;;;;20.20;6.15;;;18.20;99.90;;;;;;5051452;28;20048;-38
2022/08/18 00:27:49;;;;;;;31.50;7.00;;;17.80;99.90;;;;;;5052923;28;20509;-38
2022/08/18 00:30:18;;;;;;;19.45;7.15;;;18.10;99.90;;;;;;5052172;28;20040;-38
2022/08/18 00:32:49;;;;;;;24.85;6.68;;;18.40;99.90;;;;;;5052274;28;20047;-38
2022/08/18 00:35:25;;;;;;;25.08;7.03;;;20.00;99.90;;;;;;5052132;28;20127;-38
2022/08/18 00:37:53;;;;;;;23.45;7.60;;;18.10;99.90;;;;;;5055213;28;20036;-38
2022/08/18 00:40:23;;;;;;;24.08;7.80;;;19.60;99.90;;;;;;5056408;28;20140;-38
2022/08/18 00:42:53;;;;;;;20.90;7.18;;;18.10;99.90;;;;;;5055581;28;20036;-38
2022/08/18 00:45:27;;;;;;;18.95;7.78;;;18.10;99.90;;;;;;5056245;28;20036;-38
2022/08/18 00:47:54;;;;;;;20.20;7.72;;;19.70;99.90;;;;;;5055342;28;20556;-39
2022/08/18 00:50:40;;;;;;;25.42;8.02;;;18.00;99.90;;;;;;5055545;28;20048;-38
2022/08/18 00:53:12;;;;;;;21.80;7.95;;;20.20;99.90;;;;;;5054818;28;20048;-38
2022/08/18 00:55:40;;;;;;;20.60;7.75;;;18.00;99.90;;;;;;5054906;28;20633;-40
2022/08/18 00:58:10;;;;;;;17.58;6.90;;;18.00;99.90;;;;;;5056146;28;20040;-38
2022/08/18 01:00:36;;;;;;;21.90;8.10;;;17.70;99.90;;;;;;5056844;28;20052;-38
2022/08/18 01:03:08;;;;;;;20.85;7.07;;;19.90;99.90;;;;;;5056126;28;20067;-40
2022/08/18 01:05:42;;;;;;;18.40;7.15;;;19.70;99.90;;;;;;5056251;28;20071;-37
2022/08/18 01:08:13;;;;;;;23.92;8.10;;;17.80;99.90;;;;;;5055325;28;20045;-38
2022/08/18 01:10:39;;;;;;;16.23;6.20;;;19.50;99.90;;;;;;5056730;28;20063;-38
2022/08/18 01:13:06;;;;;;;20.98;6.25;;;18.80;99.90;;;;;;5054623;28;20155;-38
2022/08/18 01:15:34;;;;;;;21.02;6.55;;;17.60;99.90;;;;;;5055575;28;20102;-38
2022/08/18 01:24:04;;;;;;;14.48;6.78;;;17.50;99.90;;;;;;5031030;28;20114;-37
2022/08/18 01:26:33;;;;;;;19.00;6.75;;;17.60;99.90;;;;;;5032128;28;20041;-38
2022/08/18 01:29:10;;;;;;;19.08;7.88;;;17.50;99.90;;;;;;5032743;28;20473;-38
2022/08/18 01:31:46;;;;;;;16.15;7.35;;;18.30;99.90;;;;;;5032546;28;20193;-38
2022/08/18 01:34:12;;;;;;;22.42;8.20;;;18.40;99.90;;;;;;5033196;28;20049;-39
2022/08/18 01:36:40;;;;;;;16.92;7.22;;;18.20;99.90;;;;;;5032292;28;20095;-38
2022/08/18 01:39:08;;;;;;;17.02;7.35;;;19.70;99.90;;;;;;5031813;28;20049;-39
2022/08/18 01:41:34;;;;;;;21.10;8.43;;;18.40;99.90;;;;;;5030972;28;20072;-38
2022/08/18 01:44:00;;;;;;;20.10;8.07;;;17.50;99.90;;;;;;5032050;28;20196;-40
2022/08/18 01:46:29;;;;;;;17.88;7.55;;;18.10;99.90;;;;;;5031958;28;20045;-38
2022/08/18 01:48:55;;;;;;;24.60;8.50;;;17.70;99.90;;;;;;5030179;28;20068;-38
2022/08/18 01:51:20;;;;;;;17.83;7.68;;;17.80;99.90;;;;;;5031714;28;20194;-38
2022/08/18 01:53:48;;;;;;;18.60;8.20;;;19.10;99.90;;;;;;5032496;28;20592;-38
2022/08/18 01:56:16;;;;;;;23.13;8.15;;;17.50;99.90;;;;;;5031910;28;20322;-38
2022/08/18 01:58:43;;;;;;;19.73;7.80;;;17.90;99.90;;;;;;5031898;28;20041;-38
2022/08/18 02:01:11;;;;;;;18.02;7.18;;;17.60;99.90;;;;;;5048048;28;20080;-39
2022/08/18 02:03:48;;;;;;;22.90;8.65;;;17.70;99.90;;;;;;5054626;28;20044;-38
2022/08/18 02:06:17;;;;;;;17.77;7.32;;;17.60;99.90;;;;;;5052969;28;20048;-38
2022/08/18 02:08:43;;;;;;;20.95;8.77;;;17.70;99.90;;;;;;5053670;28;20071;-38
2022/08/18 02:11:09;;;;;;;18.98;7.80;;;17.40;99.90;;;;;;5053272;28;20535;-38
2022/08/18 02:13:37;;;;;;;17.90;8.18;;;18.00;99.90;;;;;;5054893;28;20111;-38
2022/08/18 02:16:03;;;;;;;20.25;8.35;;;19.50;99.90;;;;;;5056159;28;20084;-39
2022/08/18 02:18:32;;;;;;;23.40;8.32;;;17.60;99.90;;;;;;5055223;28;20075;-38
2022/08/18 02:21:11;;;;;;;19.63;8.82;;;17.70;99.90;;;;;;5054404;28;20055;-39
2022/08/18 02:23:39;;;;;;;19.88;7.72;;;17.60;99.90;;;;;;5054610;28;20043;-38
2022/08/18 02:26:06;;;;;;;24.73;8.85;;;17.70;99.90;;;;;;5055200;28;20075;-38
2022/08/18 02:28:32;;;;;;;23.52;8.93;;;17.80;99.90;;;;;;5054963;28;20032;-38
2022/08/18 02:31:07;;;;;;;23.23;8.57;;;17.70;99.90;;;;;;5054691;28;20035;-38
2022/08/18 02:33:33;;;;;;;19.80;8.82;;;17.60;99.90;;;;;;5054242;28;20484;-38
2022/08/18 02:35:59;;;;;;;20.45;8.40;;;19.30;99.90;;;;;;5053477;28;20037;-38
2022/08/18 02:38:25;;;;;;;19.05;8.15;;;17.60;99.90;;;;;;5053522;28;20052;-38
2022/08/18 02:40:59;;;;;;;18.92;8.07;;;17.90;99.90;;;;;;5053152;28;20040;-38
2022/08/18 02:43:26;;;;;;;22.35;8.35;;;18.30;99.90;;;;;;5053778;28;20036;-38
2022/08/18 02:45:52;;;;;;;20.65;8.85;;;17.20;99.90;;;;;;5053937;28;20071;-38
2022/08/18 02:48:35;;;;;;;17.15;7.72;;;18.00;99.90;;;;;;5052552;28;20501;-38
2022/08/18 02:51:03;;;;;;;22.85;10.00;;;18.90;99.90;;;;;;5056350;28;20048;-38
2022/08/18 02:53:29;;;;;;;19.90;8.98;;;19.50;99.90;;;;;;5053892;28;20363;-39
2022/08/18 02:56:04;;;;;;;26.15;9.63;;;17.90;99.90;;;;;;5053688;28;20546;-38
2022/08/18 02:58:30;;;;;;;24.88;9.35;;;17.90;99.90;;;;;;5053802;28;20040;-38
2022/08/18 03:00:55;;;;;;;27.25;10.48;;;19.20;99.90;;;;;;5051775;28;20045;-39
2022/08/18 03:03:21;;;;;;;18.42;10.30;;;17.80;99.90;;;;;;5052764;28;20517;-39
2022/08/18 03:05:46;;;;;;;23.17;9.82;;;17.80;99.90;;;;;;5053088;28;20497;-39
2022/08/18 03:08:12;;;;;;;19.55;9.48;;;17.90;99.90;;;;;;5052131;28;20329;-39
2022/08/18 03:10:38;;;;;;;21.88;10.88;;;18.20;99.90;;;;;;5053675;28;20028;-41
2022/08/18 03:13:04;;;;;;;22.42;11.10;;;17.90;99.90;;;;;;5052174;28;20071;-39
2022/08/18 03:15:30;;;;;;;21.88;9.75;;;17.80;99.90;;;;;;5052767;28;20135;-40
2022/08/18 03:17:56;;;;;;;28.17;11.55;;;17.70;99.90;;;;;;5052245;28;20132;-40
2022/08/18 03:20:25;;;;;;;21.65;10.73;;;18.80;99.90;;;;;;5053166;28;20037;-39
2022/08/18 03:22:51;;;;;;;21.00;10.52;;;17.80;99.90;;;;;;5052447;28;20501;-39
2022/08/18 03:25:16;;;;;;;18.58;9.50;;;17.80;99.90;;;;;;5051991;28;20036;-40
2022/08/18 03:27:42;;;;;;;17.50;10.15;;;18.60;99.90;;;;;;5051696;28;20083;-39
2022/08/18 03:30:10;;;;;;;20.75;9.63;;;19.00;99.90;;;;;;5054151;28;20378;-40
2022/08/18 03:32:35;;;;;;;18.58;10.75;;;17.70;99.90;;;;;;5052878;28;20042;-41
2022/08/18 03:35:03;;;;;;;23.38;11.45;;;17.70;99.90;;;;;;5053724;28;20040;-40
2022/08/18 03:37:29;;;;;;;20.95;11.23;;;17.70;99.90;;;;;;5052894;28;20036;-39
2022/08/18 03:39:54;;;;;;;18.15;10.63;;;17.80;99.90;;;;;;5054588;28;20036;-40
2022/08/18 03:42:22;;;;;;;27.15;12.95;;;18.50;99.90;;;;;;5047479;28;20044;-40
2022/08/18 03:44:48;;;;;;;22.40;11.85;;;18.30;99.90;;;;;;5052087;28;20079;-39
2022/08/18 03:47:16;;;;;;;19.45;11.55;;;17.80;99.90;;;;;;5053329;28;20067;-38
2022/08/18 03:49:44;;;;;;;21.88;12.02;;;17.80;99.90;;;;;;5053649;28;20067;-38
2022/08/18 03:52:10;;;;;;;16.30;11.95;;;17.60;99.90;;;;;;5034017;28;20870;-38
2022/08/18 03:54:37;;;;;;;23.48;12.65;;;18.10;99.90;;;;;;5051460;28;20036;-37
2022/08/18 03:57:03;;;;;;;22.80;12.20;;;17.80;99.90;;;;;;5051819;28;20509;-38
2022/08/18 03:59:30;;;;;;;22.92;10.43;;;17.90;99.90;;;;;;5053387;28;20103;-38
2022/08/18 04:01:56;;;;;;;19.17;10.80;;;17.80;99.90;;;;;;5050850;28;20135;-42
2022/08/18 04:04:27;;;;;;;20.30;10.52;;;18.00;99.90;;;;;;5051833;28;20049;-38
2022/08/18 04:06:59;;;;;;;23.85;12.63;;;17.70;99.90;;;;;;5051327;28;20040;-38
2022/08/18 04:09:28;;;;;;;18.15;10.73;;;17.90;99.90;;;;;;5053016;28;20053;-39
2022/08/18 04:11:54;;;;;;;22.90;12.02;;;17.90;99.90;;;;;;5054992;28;20098;-38
2022/08/18 04:14:24;;;;;;;30.17;12.52;;;19.00;99.90;;;;;;5056931;28;20063;-39
2022/08/18 04:16:50;;;;;;;18.77;11.55;;;19.70;99.90;;;;;;5055994;28;20037;-38
2022/08/18 04:19:17;;;;;;;20.15;11.85;;;18.50;99.90;;;;;;5056215;28;20606;-38
2022/08/18 04:21:44;;;;;;;16.35;11.30;;;17.90;99.90;;;;;;5055400;28;20048;-38
2022/08/18 04:24:12;;;;;;;20.00;12.18;;;17.70;99.90;;;;;;5056520;28;20036;-38
2022/08/18 04:26:44;;;;;;;22.63;11.50;;;17.90;99.90;;;;;;5056200;28;20573;-38
2022/08/18 04:29:12;;;;;;;18.02;11.57;;;17.80;99.90;;;;;;5057261;28;20051;-38
2022/08/18 04:31:38;;;;;;;17.63;10.45;;;20.00;99.90;;;;;;5056876;28;20560;-37
2022/08/18 04:34:05;;;;;;;17.98;10.27;;;18.70;99.90;;;;;;5056671;28;20040;-38
2022/08/18 04:36:33;;;;;;;14.30;10.30;;;18.10;99.90;;;;;;5056790;28;20032;-38
2022/08/18 04:39:00;;;;;;;14.85;10.20;;;18.50;99.90;;;;;;5056206;28;20037;-37
2022/08/18 04:41:27;;;;;;;13.02;8.15;;;17.90;99.90;;;;;;5057462;28;20127;-38
2022/08/18 04:44:00;;;;;;;20.00;10.48;;;18.00;99.90;;;;;;5057317;28;20115;-38
2022/08/18 04:46:27;;;;;;;17.80;11.13;;;18.00;99.90;;;;;;5058451;28;20040;-38
2022/08/18 04:48:57;;;;;;;23.50;11.90;;;17.70;99.90;;;;;;5057936;28;20028;-38
2022/08/18 04:51:24;;;;;;;18.52;11.38;;;17.90;99.90;;;;;;5057100;28;20048;-38
2022/08/18 04:53:49;;;;;;;18.55;12.07;;;18.00;99.90;;;;;;5056018;28;20090;-38
2022/08/18 04:56:32;;;;;;;23.60;11.05;;;18.10;99.90;;;;;;5055276;28;20044;-38
2022/08/18 04:59:06;;;;;;;15.73;10.88;;;18.30;99.90;;;;;;5055331;28;20665;-38
2022/08/18 05:01:40;;;;;;;18.52;11.50;;;18.40;99.90;;;;;;5054748;28;22129;-39
2022/08/18 05:04:07;;;;;;;20.50;11.45;;;19.10;99.90;;;;;;5054245;28;20497;-40
2022/08/18 05:06:33;;;;;;;18.40;11.70;;;18.40;99.90;;;;;;5053624;28;22130;-40
2022/08/18 05:09:04;;;;;;;22.08;14.70;;;18.50;99.90;;;;;;5054893;28;20090;-40
2022/08/18 05:11:32;;;;;;;18.45;11.68;;;18.10;99.90;;;;;;5055579;28;20101;-42
2022/08/18 05:13:59;;;;;;;23.55;14.10;;;17.90;99.90;;;;;;5054577;28;20075;-41
2022/08/18 05:16:26;;;;;;;20.05;13.82;;;19.20;99.90;;;;;;5055040;28;20318;-39
2022/08/18 05:18:52;;;;;;;19.15;14.13;;;18.00;99.90;;;;;;5054308;28;20040;-39
2022/08/18 05:21:20;;;;;;;16.35;14.02;;;18.10;99.90;;;;;;5055345;28;20118;-39
2022/08/18 05:23:49;;;;;;;20.20;12.48;;;17.10;99.90;;;;;;5054914;28;20495;-39
2022/08/18 05:26:16;;;;;;;16.65;12.07;;;18.20;99.90;;;;;;5055157;28;20361;-39
2022/08/18 05:28:43;;;;;;;20.10;12.95;;;18.10;99.90;;;;;;5087705;28;20029;-39
2022/08/18 05:31:12;;;;;;;16.42;11.77;;;18.10;99.90;;;;;;5053830;28;20071;-39
2022/08/18 05:33:41;;;;;;;14.50;10.75;;;18.00;99.90;;;;;;5054766;28;20059;-38
2022/08/18 05:36:38;;;;;;;11.25;9.75;;;18.40;99.90;;;;;;5054655;28;20131;-38
2022/08/18 05:39:22;;;;;;;11.30;9.35;;;18.00;99.90;;;;;;5052143;28;20132;-39
2022/08/18 05:41:51;;;;;;;9.82;8.48;;;18.50;99.90;;;;;;5052296;28;20055;-38
2022/08/18 05:44:34;;;;;;;13.55;9.68;;;18.90;99.90;;;;;;5054505;28;20055;-38
2022/08/18 05:47:10;;;;;;;8.82;7.60;;;18.20;99.90;;;;;;5054205;28;20072;-38
2022/08/18 05:49:36;;;;;;;11.75;8.02;;;18.20;99.90;;;;;;5056600;28;20061;-38
2022/08/18 05:52:11;;;;;;;11.60;7.72;;;17.90;99.90;;;;;;5055587;28;20040;-38
2022/08/18 05:57:36;;;;;;;12.20;7.63;;;18.50;99.90;;;;;;5056584;28;20466;-38
2022/08/18 06:00:04;;;;;;;9.40;5.82;;;17.90;99.90;;;;;;5057229;28;20416;-37
2022/08/18 06:03:03;;;;;;;9.98;6.95;;;18.20;99.90;;;;;;5055919;28;20105;-38
2022/08/18 06:05:40;;;;;;;11.60;6.72;;;18.10;99.90;;;;;;5055569;28;20032;-39
2022/08/18 06:08:12;;;;;;;11.07;7.00;;;18.50;99.90;;;;;;5054761;28;20082;-38
2022/08/18 06:10:41;;;;;;;;;;;18.30;99.90;;;;;;5055815;28;20855;-38
2022/08/18 06:13:09;;;;;;;13.13;6.25;;;17.90;99.90;;;;;;5054648;28;19936;-38
2022/08/18 06:15:49;;;;;;;11.48;5.70;;;18.40;99.90;;;;;;5054378;28;20041;-38
2022/08/18 06:18:27;;;;;;;11.55;5.68;;;18.40;99.90;;;;;;5054604;28;20048;-38
2022/08/18 06:21:31;;;;;;;11.75;5.22;;;18.50;99.90;;;;;;5052030;28;20346;-38
2022/08/18 06:24:27;;;;;;;10.73;5.05;;;18.50;99.90;;;;;;5051257;28;20050;-39
2022/08/18 06:27:30;;;;;;;10.48;5.50;;;19.30;99.90;;;;;;5050683;28;20114;-38
2022/08/18 06:30:00;;;;;;;13.77;6.15;;;18.60;99.90;;;;;;4992198;28;20053;-38
2022/08/18 06:32:57;;;;;;;13.63;5.13;;;18.70;99.90;;;;;;4991651;28;20046;-37
2022/08/18 06:35:47;;;;;;;15.52;4.90;;;18.60;99.90;;;;;;4991322;28;20045;-38
2022/08/18 06:38:54;;;;;;;15.88;4.70;;;18.50;99.90;;;;;;4991666;28;20194;-38
2022/08/18 06:41:32;;;;;;;12.55;4.65;;;18.40;99.90;;;;;;4934024;28;20055;-38
2022/08/18 06:44:30;;;;;;;12.70;4.05;;;18.60;99.90;;;;;;4935766;28;20055;-38
2022/08/18 06:47:07;;;;;;;11.07;4.35;;;18.50;99.90;;;;;;4919853;28;22307;-38
2022/08/18 06:49:47;;;;;;;9.18;3.80;;;18.40;99.90;;;;;;4933815;28;20043;-38
2022/08/18 06:52:29;;;;;;;8.50;3.20;;;18.60;99.90;;;;;;4934852;28;20083;-38
2022/08/18 06:54:59;;;;;;;9.13;3.35;;;18.50;99.90;;;;;;4934190;28;20449;-39
2022/08/18 06:57:35;;;;;;;12.02;4.25;;;20.50;99.90;;;;;;4932810;28;20570;-38
2022/08/18 07:00:18;;;;;;;7.80;3.20;;;18.90;99.90;;;;;;4934192;28;20051;-38
2022/08/18 07:02:50;;;;;;;8.85;2.55;;;18.50;99.90;;;;;;4932503;28;20496;-38
2022/08/18 07:05:24;;;;;;;5.75;2.55;;;18.70;99.90;;;;;;4935784;28;20051;-38
2022/08/18 07:08:42;;;;;;;6.85;2.22;;;18.90;99.90;;;;;;4972003;28;20039;-38
2022/08/18 07:11:16;;;;;;;7.15;2.28;;;18.90;99.90;;;;;;4914730;29;20558;-38
2022/08/18 07:13:43;;;;;;;6.90;2.00;;;18.80;99.90;;;;;;4915494;29;20063;-38
2022/08/18 07:16:27;;;;;;;7.68;1.80;;;18.70;99.90;;;;;;4905808;28;20987;-38
2022/08/18 07:18:54;;;;;;;5.18;2.40;;;18.70;99.90;;;;;;4952569;28;20610;-38
2022/08/18 07:21:27;;;;;;;6.80;1.90;;;18.80;99.90;;;;;;4936282;28;20042;-38
2022/08/18 07:24:04;;;;;;;7.95;2.10;;;19.70;99.90;;;;;;4951738;28;20078;-38
2022/08/18 07:26:50;;;;;;;5.80;1.92;;;18.90;99.90;;;;;;4952726;28;21377;-39
2022/08/18 07:29:16;;;;;;;7.38;1.90;;;18.50;99.90;;;;;;4951660;28;20042;-39
2022/08/18 07:31:48;;;;;;;8.15;1.65;;;18.70;99.90;;;;;;4950137;28;20496;-38
2022/08/18 07:34:24;;;;;;;5.75;2.10;;;18.80;99.90;;;;;;4934849;28;20423;-38
2022/08/18 07:37:06;;;;;;;6.60;1.70;;;18.80;99.90;;;;;;4934876;28;20046;-39
2022/08/18 07:39:39;;;;;;;5.60;1.52;;;18.90;99.90;;;;;;4951363;28;20138;-39
2022/08/18 07:42:16;;;;;;;4.93;1.52;;;18.90;99.90;;;;;;4951351;28;20406;-38
2022/08/18 07:44:53;;;;;;;4.25;1.50;;;19.20;99.90;;;;;;4951466;28;20062;-38
2022/08/18 07:47:41;;;;;;;3.15;1.40;;;19.30;99.90;;;;;;4976451;28;20088;-39
2022/08/18 07:50:07;;;;;;;5.55;1.85;;;19.20;99.90;;;;;;5052780;28;20109;-39
2022/08/18 07:52:44;;;;;;;4.07;1.10;;;19.70;99.90;;;;;;5053369;28;20463;-38
2022/08/18 07:55:13;;;;;;;7.03;1.40;;;19.40;99.90;;;;;;5052500;28;20048;-38
2022/08/18 07:58:14;;;;;;;6.18;1.90;;;19.20;99.90;;;;;;5052096;28;20040;-39
2022/08/18 08:01:08;;;;;;;4.55;1.33;;;19.20;99.90;;;;;;4994554;28;20124;-38
2022/08/18 08:03:40;;;;;;;4.28;1.52;;;19.10;99.90;;;;;;4912573;29;20505;-39
2022/08/18 08:06:15;;;;;;;5.88;1.73;;;19.20;99.90;;;;;;4912920;29;20540;-39
2022/08/18 08:08:53;;;;;;;3.42;1.38;;;19.10;99.90;;;;;;4914248;29;20055;-38
2022/08/18 08:11:21;;;;;;;5.28;1.60;;;19.10;99.90;;;;;;4913922;29;20059;-40
2022/08/18 08:14:42;;;;;;;5.55;1.50;;;19.20;99.90;;;;;;4912741;29;20127;-39
2022/08/18 08:17:16;;;;;;;5.50;1.42;;;19.40;99.90;;;;;;4875801;29;20442;-39
2022/08/18 08:20:00;;;;;;;7.20;1.70;;;19.60;99.90;;;;;;4875851;29;20835;-38
2022/08/18 08:23:00;;;;;;;3.92;1.55;;;19.20;99.90;;;;;;4876444;29;20143;-40
2022/08/18 08:25:35;;;;;;;4.45;1.60;;;19.20;99.90;;;;;;4876457;29;20049;-39
2022/08/18 08:28:22;;;;;;;5.63;1.60;;;19.30;99.90;;;;;;4876402;29;20213;-39
2022/08/18 08:31:07;;;;;;;6.10;1.40;;;19.20;99.90;;;;;;4877255;29;20127;-38
2022/08/18 08:34:19;;;;;;;7.20;1.67;;;20.10;99.90;;;;;;4876976;29;20052;-39
2022/08/18 08:36:47;;;;;;;7.20;1.50;;;19.20;99.90;;;;;;4852341;29;20060;-39
2022/08/18 08:39:30;;;;;;;4.80;1.42;;;19.20;99.90;;;;;;4877748;29;20056;-38
2022/08/18 08:42:00;;;;;;;5.22;1.50;;;19.70;99.90;;;;;;4951340;28;20539;-39
2022/08/18 08:44:59;;;;;;;4.05;1.40;;;19.60;99.90;;;;;;4941770;28;20546;-39
2022/08/18 08:47:37;;;;;;;3.67;1.50;;;19.40;99.90;;;;;;4965666;28;20557;-38
2022/08/18 08:50:23;;;;;;;4.35;1.38;;;19.50;99.90;;;;;;4989715;28;20108;-39
2022/08/18 08:53:22;;;;;;;5.45;2.00;;;19.50;99.90;;;;;;4973064;28;20046;-38
2022/08/18 08:55:54;;;;;;;3.78;1.33;;;19.50;99.90;;;;;;4973823;28;20107;-39
2022/08/18 08:58:39;;;;;;;5.90;1.67;;;19.50;99.90;;;;;;4993987;28;20054;-38
2022/08/18 09:01:09;;;;;;;7.10;1.58;;;19.40;99.90;;;;;;4994173;28;20053;-39
2022/08/18 09:03:56;;;;;;;3.78;1.38;;;19.40;99.90;;;;;;4976573;28;20049;-39
2022/08/18 09:06:41;;;;;;;5.50;1.50;;;19.60;99.90;;;;;;4993346;28;20045;-40
2022/08/18 09:09:44;;;;;;;4.80;1.73;;;19.80;99.90;;;;;;4993436;28;20743;-39
2022/08/18 09:12:19;;;;;;;5.30;1.90;;;19.90;99.90;;;;;;5012358;28;20143;-40
2022/08/18 09:15:11;;;;;;;6.80;1.50;;;20.20;99.90;;;;;;5012722;28;20519;-39
2022/08/18 09:17:51;;;;;;;;;;;19.90;99.90;;;;;;4995595;28;20053;-41
2022/08/18 09:20:41;;;;;;;4.25;1.60;;;19.90;99.90;;;;;;5011692;28;19929;-39
2022/08/18 09:23:17;;;;;;;3.55;1.50;;;19.80;99.90;;;;;;5011120;28;20694;-39
2022/08/18 09:25:45;;;;;;;9.20;2.22;;;20.00;99.90;;;;;;5012477;28;20041;-39
2022/08/18 09:28:55;;;;;;;7.35;2.05;;;19.90;99.90;;;;;;5011490;28;20338;-39
2022/08/18 09:31:21;;;;;;;6.45;1.95;;;19.90;99.90;;;;;;4993862;28;20065;-39
2022/08/18 09:34:22;;;;;;;7.43;1.90;;;22.10;99.90;;;;;;4992494;28;20056;-40
2022/08/18 09:37:10;;;;;;;5.75;1.52;;;19.90;99.90;;;;;;4992389;28;20093;-40
2022/08/18 09:42:53;;;;;;;5.95;1.70;;;21.10;99.90;;;;;;4993539;28;20152;-39
2022/08/18 09:45:30;;;;;;;6.13;2.03;;;21.40;99.90;;;;;;4993197;28;20050;-40
2022/08/18 09:48:28;;;;;;;6.90;1.70;;;20.60;99.90;;;;;;4994854;28;20048;-41
2022/08/18 09:51:14;;;;;;;4.60;1.67;;;20.60;99.90;;;;;;5016397;28;20079;-39
2022/08/18 09:53:46;;;;;;;4.63;1.60;;;20.60;99.90;;;;;;5018427;28;20057;-39
2022/08/18 09:56:36;;;;;;;5.50;1.70;;;20.50;99.90;;;;;;5018987;28;20045;-40
2022/08/18 09:59:04;;;;;;;7.50;1.92;;;21.70;99.90;;;;;;5001062;28;20033;-41
2022/08/18 10:01:35;;;;;;;4.03;1.33;;;20.60;99.90;;;;;;5017017;28;20049;-39
2022/08/18 10:04:18;;;;;;;7.10;1.95;;;20.40;99.90;;;;;;5014804;28;20893;-39
2022/08/18 10:06:47;;;;;;;7.55;1.80;;;20.60;99.90;;;;;;5035476;28;20059;-39
2022/08/18 10:09:29;;;;;;;6.93;1.92;;;20.30;99.90;;;;;;5053962;28;20045;-40
2022/08/18 10:12:19;;;;;;;7.20;1.80;;;20.60;99.90;;;;;;5055177;28;20041;-39
2022/08/18 10:14:47;;;;;;;5.05;1.48;;;20.40;99.90;;;;;;5054186;28;20041;-40
2022/08/18 10:17:39;;;;;;;4.72;1.40;;;20.40;99.90;;;;;;5054109;28;20036;-39
2022/08/18 10:20:31;;;;;;;5.72;1.52;;;20.30;99.90;;;;;;5053379;28;20047;-39
2022/08/18 10:22:56;;;;;;;;;;;20.20;99.90;;;;;;5054629;28;20589;-39
2022/08/18 10:25:46;;;;;;;5.20;1.70;;;20.90;99.90;;;;;;5053982;28;19925;-39
2022/08/18 10:28:49;;;;;;;4.75;1.30;;;20.40;99.90;;;;;;5053858;28;20511;-39
2022/08/18 10:31:17;;;;;;;4.50;1.30;;;20.90;99.90;;;;;;5054602;28;20123;-39
2022/08/18 10:34:07;;;;;;;5.90;1.38;;;21.00;99.90;;;;;;5054501;28;20106;-39
2022/08/18 10:36:38;;;;;;;3.65;1.40;;;20.90;99.90;;;;;;5054075;28;20032;-42
2022/08/18 10:39:09;;;;;;;4.28;1.58;;;21.10;99.90;;;;;;5053715;28;20048;-39
2022/08/18 10:41:37;;;;;;;5.20;1.42;;;21.00;99.90;;;;;;5054833;28;20044;-39
2022/08/18 10:44:04;;;;;;;8.85;1.70;;;20.90;99.90;;;;;;5052404;28;20394;-40
2022/08/18 10:46:40;;;;;;;14.20;2.00;;;20.80;99.90;;;;;;5051939;28;20079;-39
2022/08/18 10:49:24;;;;;;;8.10;1.60;;;21.00;99.90;;;;;;5053407;28;20040;-41
2022/08/18 10:52:16;;;;;;;5.68;1.65;;;21.50;99.90;;;;;;5053367;28;20435;-41
2022/08/18 10:55:07;;;;;;;6.57;1.88;;;21.70;99.90;;;;;;5053746;28;20045;-42
2022/08/18 10:57:48;;;;;;;2.80;1.13;;;21.70;99.90;;;;;;5050340;28;20123;-40
2022/08/18 11:00:18;;;;;;;6.55;1.27;;;21.70;99.90;;;;;;5050221;28;20413;-40
2022/08/18 11:02:51;;;;;;;6.20;1.55;;;21.30;99.90;;;;;;5050403;28;20620;-41
2022/08/18 11:05:22;;;;;;;6.10;1.40;;;21.30;99.90;;;;;;5049574;28;20111;-41
2022/08/18 11:07:57;;;;;;;4.15;1.63;;;21.40;99.90;;;;;;5033791;28;20151;-41
2022/08/18 11:10:34;;;;;;;6.25;1.65;;;21.80;99.90;;;;;;5050093;28;20055;-44
2022/08/18 11:13:11;;;;;;;5.93;2.08;;;21.80;99.90;;;;;;5048610;28;20097;-44
2022/08/18 11:16:12;;;;;;;5.13;1.30;;;21.90;99.90;;;;;;5048814;28;20044;-41
2022/08/18 11:18:48;;;;;;;4.43;1.35;;;21.70;99.90;;;;;;5050839;28;20037;-45
2022/08/18 11:21:25;;;;;;;6.13;1.58;;;21.50;99.90;;;;;;5051246;28;20111;-41
2022/08/18 11:24:20;;;;;;;5.85;1.50;;;21.50;99.90;;;;;;5051281;28;20029;-42
2022/08/18 11:27:00;;;;;;;4.13;1.13;;;21.70;99.90;;;;;;5049925;28;20048;-45
2022/08/18 11:29:38;;;;;;;4.63;1.47;;;22.20;99.90;;;;;;5034195;28;20103;-41
2022/08/18 11:32:03;;;;;;;5.68;1.50;;;22.40;99.90;;;;;;5017107;28;20106;-42
2022/08/18 11:35:10;;;;;;;4.63;1.55;;;21.90;99.90;;;;;;5052556;28;20048;-45
2022/08/18 11:37:53;;;;;;;4.85;1.65;;;21.60;99.90;;;;;;5053867;28;20496;-45
2022/08/18 11:41:00;;;;;;;6.07;1.92;;;21.40;99.90;;;;;;5053769;28;20037;-43
2022/08/18 11:43:38;;;;;;;5.30;2.05;;;21.50;99.90;;;;;;4994935;28;20119;-46
2022/08/18 11:46:21;;;;;;;9.38;2.10;;;21.50;99.90;;;;;;4996883;28;20065;-44
2022/08/18 11:48:49;;;;;;;4.95;1.75;;;21.50;99.90;;;;;;4997005;28;20041;-42
2022/08/18 11:51:26;;;;;;;5.70;2.20;;;22.80;99.90;;;;;;4994810;28;20049;-44
2022/08/18 11:54:21;;;;;;;5.53;2.25;;;21.30;99.90;;;;;;4993961;28;20049;-45
2022/08/18 11:56:47;;;;;;;5.07;2.00;;;23.80;99.90;;;;;;4951483;28;20094;-44
2022/08/18 11:59:25;;;;;;;5.95;1.80;;;21.60;99.90;;;;;;4950913;28;20059;-45
2022/08/18 12:01:55;;;;;;;4.63;1.58;;;21.70;99.90;;;;;;4952372;28;20068;-45
2022/08/18 12:04:37;;;;;;;6.35;1.40;;;21.60;99.90;;;;;;4951442;28;20042;-44
2022/08/18 12:07:15;;;;;;;3.38;1.30;;;21.70;99.90;;;;;;4953435;28;20151;-43
2022/08/18 12:10:10;;;;;;;4.90;1.52;;;21.80;99.90;;;;;;4951275;28;20696;-41
2022/08/18 12:12:52;;;;;;;5.13;1.88;;;21.60;99.90;;;;;;4955695;28;20050;-46
2022/08/18 12:15:18;;;;;;;4.53;1.67;;;21.80;99.90;;;;;;4951162;28;20053;-46
2022/08/18 12:17:46;;;;;;;7.40;2.10;;;21.80;99.90;;;;;;4949832;28;20492;-44
2022/08/18 12:20:14;;;;;;;5.00;1.70;;;22.60;99.90;;;;;;4963977;28;20783;-46
2022/08/18 12:22:42;;;;;;;3.90;1.80;;;21.80;99.90;;;;;;4967110;28;20062;-42
2022/08/18 12:25:13;;;;;;;3.05;1.50;;;22.10;99.90;;;;;;4964210;28;20452;-41
2022/08/18 12:27:40;;;;;;;4.10;1.77;;;22.40;99.90;;;;;;4966081;28;20058;-45
2022/08/18 12:30:07;;;;;;;7.88;1.42;;;22.80;99.90;;;;;;4950653;28;20577;-45
2022/08/18 12:32:34;;;;;;;4.63;1.60;;;23.10;99.90;;;;;;4989166;28;20052;-45
2022/08/18 12:35:01;;;;;;;3.67;1.98;;;23.10;99.90;;;;;;5055919;28;20041;-42
2022/08/18 12:37:28;;;;;;;6.82;1.85;;;24.20;99.90;;;;;;5055797;28;20159;-42
2022/08/18 12:39:56;;;;;;;3.30;1.80;;;23.40;99.90;;;;;;5057256;28;20516;-43
2022/08/18 12:42:22;;;;;;;6.18;1.58;;;23.50;99.90;;;;;;5056645;28;20583;-45
2022/08/18 12:44:51;;;;;;;4.63;1.40;;;23.90;99.90;;;;;;5057850;28;20097;-41
2022/08/18 12:47:20;;;;;;;4.72;1.60;;;23.50;99.90;;;;;;5056452;28;20045;-46
2022/08/18 12:49:47;;;;;;;4.13;1.58;;;23.40;99.90;;;;;;5056602;28;20036;-44
2022/08/18 12:52:13;;;;;;;4.65;1.50;;;22.70;99.90;;;;;;5056589;28;20104;-45
2022/08/18 12:54:38;;;;;;;3.10;1.60;;;22.60;99.90;;;;;;5056540;28;20084;-45
2022/08/18 12:57:08;;;;;;;4.97;1.55;;;22.90;99.90;;;;;;5055300;28;20037;-41
2022/08/18 12:59:36;;;;;;;4.20;1.48;;;22.90;99.90;;;;;;5056857;28;20040;-42
2022/08/18 13:02:01;;;;;;;4.45;1.55;;;22.90;99.90;;;;;;5057452;28;20056;-44
2022/08/18 13:04:27;;;;;;;4.32;1.70;;;22.60;99.90;;;;;;5056449;28;21191;-41
2022/08/18 13:06:58;;;;;;;5.07;1.55;;;22.60;99.90;;;;;;5056769;28;20113;-43
2022/08/18 13:09:24;;;;;;;5.20;1.50;;;22.60;99.90;;;;;;5055556;28;20040;-43
2022/08/18 13:11:50;;;;;;;3.80;1.50;;;22.60;99.90;;;;;;5056739;28;20036;-44
2022/08/18 13:14:16;;;;;;;3.15;1.60;;;23.00;99.90;;;;;;5055447;28;20039;-44
2022/08/18 13:16:44;;;;;;;2.78;1.27;;;23.20;99.90;;;;;;5055913;28;20048;-45
2022/08/18 13:19:11;;;;;;;3.08;1.40;;;23.40;99.90;;;;;;5055432;28;20121;-45
2022/08/18 13:21:40;;;;;;;3.67;1.52;;;23.20;99.90;;;;;;5055098;28;20664;-45
2022/08/18 13:24:05;;;;;;;4.63;1.60;;;23.00;99.90;;;;;;5055917;28;20040;-45
2022/08/18 13:26:35;;;;;;;5.38;2.05;;;22.90;99.90;;;;;;5054444;28;20554;-46
2022/08/18 13:29:03;;;;;;;4.43;1.77;;;22.50;99.90;;;;;;5055029;28;20040;-44